sensor_id;sensor_type;location;lat;lon;timestamp;P1;durP1;ratioP1;P2;durP2;ratioP2
14306;SDS011;7237;49.500;11.400;2023-02-01T00:02:01;2.50;;;2.30;;
14306;SDS011;7237;49.500;11.400;2023-02-01T00:04:29;2.97;;;2.53;;
14306;SDS011;7237;49.500;11.400;2023-02-01T00:06:57;2.40;;;2.20;;
14306;SDS011;7237;49.500;11.400;2023-02-01T00:09:25;2.90;;;2.60;;
14306;SDS011;7237;49.500;11.400;2023-02-01T00:11:52;3.10;;;2.50;;
14306;SDS011;7237;49.500;11.400;2023-02-01T00:14:20;2.67;;;2.47;;
14306;SDS011;7237;49.500;11.400;2023-02-01T00:16:47;2.90;;;2.63;;
14306;SDS011;7237;49.500;11.400;2023-02-01T00:19:14;3.27;;;2.63;;
14306;SDS011;7237;49.500;11.400;2023-02-01T00:21:42;3.40;;;2.77;;
14306;SDS011;7237;49.500;11.400;2023-02-01T00:24:11;3.40;;;3.10;;
14306;SDS011;7237;49.500;11.400;2023-02-01T00:26:40;3.60;;;3.30;;
14306;SDS011;7237;49.500;11.400;2023-02-01T00:29:08;3.47;;;2.70;;
14306;SDS011;7237;49.500;11.400;2023-02-01T00:31:36;3.30;;;3.00;;
14306;SDS011;7237;49.500;11.400;2023-02-01T00:34:03;3.50;;;3.20;;
14306;SDS011;7237;49.500;11.400;2023-02-01T00:36:30;3.83;;;3.20;;
14306;SDS011;7237;49.500;11.400;2023-02-01T00:38:57;4.17;;;3.03;;
14306;SDS011;7237;49.500;11.400;2023-02-01T00:41:26;4.37;;;3.50;;
14306;SDS011;7237;49.500;11.400;2023-02-01T00:43:53;3.53;;;3.23;;
14306;SDS011;7237;49.500;11.400;2023-02-01T00:46:20;4.00;;;3.67;;
14306;SDS011;7237;49.500;11.400;2023-02-01T00:48:47;4.30;;;3.57;;
14306;SDS011;7237;49.500;11.400;2023-02-01T00:51:15;5.00;;;4.03;;
14306;SDS011;7237;49.500;11.400;2023-02-01T00:53:43;5.13;;;4.27;;
14306;SDS011;7237;49.500;11.400;2023-02-01T00:56:10;4.20;;;3.80;;
14306;SDS011;7237;49.500;11.400;2023-02-01T00:58:39;4.17;;;3.77;;
14306;SDS011;7237;49.500;11.400;2023-02-01T01:01:07;4.20;;;3.80;;
14306;SDS011;7237;49.500;11.400;2023-02-01T01:03:35;4.13;;;3.70;;
14306;SDS011;7237;49.500;11.400;2023-02-01T01:06:03;4.77;;;3.87;;
14306;SDS011;7237;49.500;11.400;2023-02-01T01:08:31;4.60;;;3.53;;
14306;SDS011;7237;49.500;11.400;2023-02-01T01:10:58;5.10;;;3.70;;
14306;SDS011;7237;49.500;11.400;2023-02-01T01:13:25;3.90;;;3.57;;
14306;SDS011;7237;49.500;11.400;2023-02-01T01:15:54;6.57;;;3.67;;
14306;SDS011;7237;49.500;11.400;2023-02-01T01:18:21;3.53;;;3.23;;
14306;SDS011;7237;49.500;11.400;2023-02-01T01:20:48;3.63;;;3.20;;
14306;SDS011;7237;49.500;11.400;2023-02-01T01:23:15;4.73;;;3.90;;
14306;SDS011;7237;49.500;11.400;2023-02-01T01:25:42;4.33;;;3.47;;
14306;SDS011;7237;49.500;11.400;2023-02-01T01:28:09;4.03;;;3.70;;
14306;SDS011;7237;49.500;11.400;2023-02-01T01:30:36;3.37;;;3.07;;
14306;SDS011;7237;49.500;11.400;2023-02-01T01:33:05;4.40;;;3.60;;
14306;SDS011;7237;49.500;11.400;2023-02-01T01:35:32;3.73;;;3.33;;
14306;SDS011;7237;49.500;11.400;2023-02-01T01:37:59;4.03;;;3.67;;
14306;SDS011;7237;49.500;11.400;2023-02-01T01:40:27;4.03;;;3.63;;
14306;SDS011;7237;49.500;11.400;2023-02-01T01:42:54;4.20;;;3.57;;
14306;SDS011;7237;49.500;11.400;2023-02-01T01:45:23;5.13;;;3.37;;
14306;SDS011;7237;49.500;11.400;2023-02-01T01:47:51;4.53;;;3.87;;
14306;SDS011;7237;49.500;11.400;2023-02-01T01:50:21;4.30;;;3.63;;
14306;SDS011;7237;49.500;11.400;2023-02-01T01:52:49;4.57;;;3.50;;
14306;SDS011;7237;49.500;11.400;2023-02-01T01:55:18;3.40;;;3.10;;
14306;SDS011;7237;49.500;11.400;2023-02-01T01:57:47;3.80;;;3.30;;
14306;SDS011;7237;49.500;11.400;2023-02-01T02:00:16;4.33;;;3.93;;
14306;SDS011;7237;49.500;11.400;2023-02-01T02:02:45;4.60;;;3.73;;
14306;SDS011;7237;49.500;11.400;2023-02-01T02:05:13;7.60;;;4.20;;
14306;SDS011;7237;49.500;11.400;2023-02-01T02:07:43;4.50;;;4.10;;
14306;SDS011;7237;49.500;11.400;2023-02-01T02:10:12;4.20;;;3.80;;
14306;SDS011;7237;49.500;11.400;2023-02-01T02:12:40;3.70;;;3.40;;
14306;SDS011;7237;49.500;11.400;2023-02-01T02:15:08;4.27;;;3.93;;
14306;SDS011;7237;49.500;11.400;2023-02-01T02:17:36;4.30;;;3.80;;
14306;SDS011;7237;49.500;11.400;2023-02-01T02:20:18;4.13;;;3.57;;
14306;SDS011;7237;49.500;11.400;2023-02-01T02:25:42;3.87;;;3.57;;
14306;SDS011;7237;49.500;11.400;2023-02-01T02:28:14;4.17;;;3.77;;
14306;SDS011;7237;49.500;11.400;2023-02-01T02:30:52;6.70;;;3.90;;
14306;SDS011;7237;49.500;11.400;2023-02-01T02:36:09;4.60;;;3.90;;
14306;SDS011;7237;49.500;11.400;2023-02-01T02:38:39;5.20;;;3.63;;
14306;SDS011;7237;49.500;11.400;2023-02-01T02:41:09;4.73;;;3.50;;
14306;SDS011;7237;49.500;11.400;2023-02-01T02:44:02;6.50;;;3.70;;
14306;SDS011;7237;49.500;11.400;2023-02-01T02:46:48;3.47;;;3.03;;
14306;SDS011;7237;49.500;11.400;2023-02-01T02:49:35;5.50;;;3.60;;
14306;SDS011;7237;49.500;11.400;2023-02-01T02:52:05;4.13;;;3.73;;
14306;SDS011;7237;49.500;11.400;2023-02-01T02:54:52;3.90;;;3.60;;
14306;SDS011;7237;49.500;11.400;2023-02-01T02:57:22;4.97;;;3.17;;
14306;SDS011;7237;49.500;11.400;2023-02-01T03:00:09;4.30;;;3.90;;
14306;SDS011;7237;49.500;11.400;2023-02-01T03:02:55;4.13;;;2.97;;
14306;SDS011;7237;49.500;11.400;2023-02-01T03:05:40;3.00;;;2.73;;
14306;SDS011;7237;49.500;11.400;2023-02-01T03:08:11;3.67;;;3.00;;
14306;SDS011;7237;49.500;11.400;2023-02-01T03:10:43;4.20;;;3.80;;
14306;SDS011;7237;49.500;11.400;2023-02-01T03:13:12;4.27;;;2.90;;
14306;SDS011;7237;49.500;11.400;2023-02-01T03:15:39;3.53;;;3.23;;
14306;SDS011;7237;49.500;11.400;2023-02-01T03:18:10;3.93;;;3.20;;
14306;SDS011;7237;49.500;11.400;2023-02-01T03:20:39;3.67;;;3.23;;
14306;SDS011;7237;49.500;11.400;2023-02-01T03:23:07;3.37;;;3.07;;
14306;SDS011;7237;49.500;11.400;2023-02-01T03:25:36;3.07;;;2.77;;
14306;SDS011;7237;49.500;11.400;2023-02-01T03:28:04;5.50;;;3.50;;
14306;SDS011;7237;49.500;11.400;2023-02-01T03:30:34;4.30;;;3.30;;
14306;SDS011;7237;49.500;11.400;2023-02-01T03:33:03;3.37;;;3.07;;
14306;SDS011;7237;49.500;11.400;2023-02-01T03:35:37;4.37;;;3.63;;
14306;SDS011;7237;49.500;11.400;2023-02-01T03:38:08;3.70;;;3.40;;
14306;SDS011;7237;49.500;11.400;2023-02-01T03:40:39;3.33;;;3.03;;
14306;SDS011;7237;49.500;11.400;2023-02-01T03:43:07;3.67;;;3.20;;
14306;SDS011;7237;49.500;11.400;2023-02-01T03:45:38;3.30;;;3.00;;
14306;SDS011;7237;49.500;11.400;2023-02-01T03:48:07;3.67;;;3.30;;
14306;SDS011;7237;49.500;11.400;2023-02-01T03:50:36;4.53;;;3.40;;
14306;SDS011;7237;49.500;11.400;2023-02-01T03:53:04;3.27;;;2.97;;
14306;SDS011;7237;49.500;11.400;2023-02-01T03:55:32;4.30;;;2.90;;
14306;SDS011;7237;49.500;11.400;2023-02-01T03:58:02;3.40;;;3.10;;
14306;SDS011;7237;49.500;11.400;2023-02-01T04:00:30;3.63;;;3.33;;
14306;SDS011;7237;49.500;11.400;2023-02-01T04:02:57;4.77;;;3.20;;
14306;SDS011;7237;49.500;11.400;2023-02-01T04:05:25;3.43;;;3.13;;
14306;SDS011;7237;49.500;11.400;2023-02-01T04:07:52;4.27;;;3.60;;
14306;SDS011;7237;49.500;11.400;2023-02-01T04:10:19;4.10;;;3.57;;
14306;SDS011;7237;49.500;11.400;2023-02-01T04:12:46;4.47;;;3.53;;
14306;SDS011;7237;49.500;11.400;2023-02-01T04:15:14;4.27;;;3.87;;
14306;SDS011;7237;49.500;11.400;2023-02-01T04:17:41;4.23;;;3.83;;
14306;SDS011;7237;49.500;11.400;2023-02-01T04:20:09;6.37;;;3.23;;
14306;SDS011;7237;49.500;11.400;2023-02-01T04:22:36;3.93;;;3.63;;
14306;SDS011;7237;49.500;11.400;2023-02-01T04:25:04;4.93;;;4.13;;
14306;SDS011;7237;49.500;11.400;2023-02-01T04:27:31;3.90;;;3.60;;
14306;SDS011;7237;49.500;11.400;2023-02-01T04:29:58;4.83;;;4.37;;
14306;SDS011;7237;49.500;11.400;2023-02-01T04:32:27;4.27;;;3.87;;
14306;SDS011;7237;49.500;11.400;2023-02-01T04:34:54;5.03;;;4.43;;
14306;SDS011;7237;49.500;11.400;2023-02-01T04:37:21;5.57;;;4.57;;
14306;SDS011;7237;49.500;11.400;2023-02-01T04:39:48;7.30;;;4.30;;
14306;SDS011;7237;49.500;11.400;2023-02-01T04:42:15;4.87;;;4.00;;
14306;SDS011;7237;49.500;11.400;2023-02-01T04:44:42;4.73;;;4.27;;
14306;SDS011;7237;49.500;11.400;2023-02-01T04:47:09;5.77;;;4.27;;
14306;SDS011;7237;49.500;11.400;2023-02-01T04:49:37;4.87;;;4.47;;
14306;SDS011;7237;49.500;11.400;2023-02-01T04:52:04;5.17;;;4.67;;
14306;SDS011;7237;49.500;11.400;2023-02-01T04:54:32;7.07;;;4.93;;
14306;SDS011;7237;49.500;11.400;2023-02-01T04:56:59;8.77;;;4.60;;
14306;SDS011;7237;49.500;11.400;2023-02-01T04:59:26;4.83;;;4.43;;
14306;SDS011;7237;49.500;11.400;2023-02-01T05:01:53;4.27;;;3.83;;
14306;SDS011;7237;49.500;11.400;2023-02-01T05:04:20;4.83;;;3.90;;
14306;SDS011;7237;49.500;11.400;2023-02-01T05:06:49;4.50;;;4.13;;
14306;SDS011;7237;49.500;11.400;2023-02-01T05:09:16;4.80;;;4.33;;
14306;SDS011;7237;49.500;11.400;2023-02-01T05:11:43;4.23;;;3.83;;
14306;SDS011;7237;49.500;11.400;2023-02-01T05:14:27;4.30;;;4.00;;
14306;SDS011;7237;49.500;11.400;2023-02-01T05:16:54;4.73;;;4.00;;
14306;SDS011;7237;49.500;11.400;2023-02-01T05:19:21;7.07;;;4.57;;
14306;SDS011;7237;49.500;11.400;2023-02-01T05:21:50;4.70;;;4.30;;
14306;SDS011;7237;49.500;11.400;2023-02-01T05:24:17;5.93;;;4.60;;
14306;SDS011;7237;49.500;11.400;2023-02-01T05:26:46;5.83;;;4.30;;
14306;SDS011;7237;49.500;11.400;2023-02-01T05:29:13;4.83;;;4.30;;
14306;SDS011;7237;49.500;11.400;2023-02-01T05:31:40;4.60;;;4.17;;
14306;SDS011;7237;49.500;11.400;2023-02-01T05:34:07;4.80;;;4.40;;
14306;SDS011;7237;49.500;11.400;2023-02-01T05:36:35;4.57;;;4.17;;
14306;SDS011;7237;49.500;11.400;2023-02-01T05:39:03;4.53;;;4.13;;
14306;SDS011;7237;49.500;11.400;2023-02-01T05:41:30;7.70;;;4.40;;
14306;SDS011;7237;49.500;11.400;2023-02-01T05:43:57;5.30;;;4.60;;
14306;SDS011;7237;49.500;11.400;2023-02-01T05:46:24;4.23;;;3.93;;
14306;SDS011;7237;49.500;11.400;2023-02-01T05:48:51;4.43;;;3.90;;
14306;SDS011;7237;49.500;11.400;2023-02-01T05:51:18;4.37;;;3.97;;
14306;SDS011;7237;49.500;11.400;2023-02-01T05:53:45;4.77;;;3.93;;
14306;SDS011;7237;49.500;11.400;2023-02-01T05:56:14;4.27;;;3.67;;
14306;SDS011;7237;49.500;11.400;2023-02-01T05:58:41;4.50;;;4.10;;
14306;SDS011;7237;49.500;11.400;2023-02-01T06:01:08;4.33;;;3.67;;
14306;SDS011;7237;49.500;11.400;2023-02-01T06:03:35;4.77;;;3.63;;
14306;SDS011;7237;49.500;11.400;2023-02-01T06:06:02;4.40;;;2.80;;
14306;SDS011;7237;49.500;11.400;2023-02-01T06:08:29;5.53;;;3.40;;
14306;SDS011;7237;49.500;11.400;2023-02-01T06:10:59;3.37;;;2.73;;
14306;SDS011;7237;49.500;11.400;2023-02-01T06:13:28;4.73;;;2.50;;
14306;SDS011;7237;49.500;11.400;2023-02-01T06:15:55;6.60;;;2.00;;
14306;SDS011;7237;49.500;11.400;2023-02-01T06:18:22;3.73;;;1.63;;
14306;SDS011;7237;49.500;11.400;2023-02-01T06:20:51;3.53;;;1.80;;
14306;SDS011;7237;49.500;11.400;2023-02-01T06:23:19;4.80;;;2.00;;
14306;SDS011;7237;49.500;11.400;2023-02-01T06:25:48;3.70;;;2.07;;
14306;SDS011;7237;49.500;11.400;2023-02-01T06:28:15;2.90;;;2.10;;
14306;SDS011;7237;49.500;11.400;2023-02-01T06:30:44;2.77;;;2.10;;
14306;SDS011;7237;49.500;11.400;2023-02-01T06:33:11;5.30;;;2.30;;
14306;SDS011;7237;49.500;11.400;2023-02-01T06:35:39;3.10;;;2.03;;
14306;SDS011;7237;49.500;11.400;2023-02-01T06:38:07;3.63;;;2.03;;
14306;SDS011;7237;49.500;11.400;2023-02-01T06:40:35;3.93;;;2.57;;
14306;SDS011;7237;49.500;11.400;2023-02-01T06:43:02;3.40;;;2.27;;
14306;SDS011;7237;49.500;11.400;2023-02-01T06:45:29;2.97;;;2.63;;
14306;SDS011;7237;49.500;11.400;2023-02-01T06:47:57;3.50;;;2.47;;
14306;SDS011;7237;49.500;11.400;2023-02-01T06:50:24;2.73;;;1.90;;
14306;SDS011;7237;49.500;11.400;2023-02-01T06:52:52;2.27;;;1.90;;
14306;SDS011;7237;49.500;11.400;2023-02-01T06:55:19;3.17;;;1.90;;
14306;SDS011;7237;49.500;11.400;2023-02-01T06:57:46;3.37;;;2.20;;
14306;SDS011;7237;49.500;11.400;2023-02-01T07:00:13;2.07;;;1.87;;
14306;SDS011;7237;49.500;11.400;2023-02-01T07:02:40;3.13;;;1.87;;
14306;SDS011;7237;49.500;11.400;2023-02-01T07:05:09;2.87;;;2.40;;
14306;SDS011;7237;49.500;11.400;2023-02-01T07:07:36;2.43;;;2.23;;
14306;SDS011;7237;49.500;11.400;2023-02-01T07:10:03;2.80;;;2.17;;
14306;SDS011;7237;49.500;11.400;2023-02-01T07:12:30;1.90;;;1.80;;
14306;SDS011;7237;49.500;11.400;2023-02-01T07:14:57;2.77;;;2.20;;
14306;SDS011;7237;49.500;11.400;2023-02-01T07:17:26;2.60;;;2.00;;
14306;SDS011;7237;49.500;11.400;2023-02-01T07:19:54;2.23;;;2.10;;
14306;SDS011;7237;49.500;11.400;2023-02-01T07:22:23;2.17;;;1.97;;
14306;SDS011;7237;49.500;11.400;2023-02-01T07:24:50;2.07;;;1.87;;
14306;SDS011;7237;49.500;11.400;2023-02-01T07:27:17;2.10;;;1.90;;
14306;SDS011;7237;49.500;11.400;2023-02-01T07:29:44;2.17;;;2.03;;
14306;SDS011;7237;49.500;11.400;2023-02-01T07:32:12;2.40;;;2.00;;
14306;SDS011;7237;49.500;11.400;2023-02-01T07:34:42;2.57;;;2.20;;
14306;SDS011;7237;49.500;11.400;2023-02-01T07:37:10;1.90;;;1.80;;
14306;SDS011;7237;49.500;11.400;2023-02-01T07:39:38;2.10;;;2.00;;
14306;SDS011;7237;49.500;11.400;2023-02-01T07:42:05;2.17;;;2.00;;
14306;SDS011;7237;49.500;11.400;2023-02-01T07:44:33;1.80;;;1.70;;
14306;SDS011;7237;49.500;11.400;2023-02-01T07:47:00;1.83;;;1.73;;
14306;SDS011;7237;49.500;11.400;2023-02-01T07:49:27;1.97;;;1.70;;
14306;SDS011;7237;49.500;11.400;2023-02-01T07:51:54;2.10;;;1.90;;
14306;SDS011;7237;49.500;11.400;2023-02-01T07:54:21;1.90;;;1.80;;
14306;SDS011;7237;49.500;11.400;2023-02-01T07:56:49;3.27;;;2.07;;
14306;SDS011;7237;49.500;11.400;2023-02-01T07:59:16;3.00;;;1.90;;
14306;SDS011;7237;49.500;11.400;2023-02-01T08:01:43;2.07;;;1.97;;
14306;SDS011;7237;49.500;11.400;2023-02-01T08:04:10;4.30;;;1.80;;
14306;SDS011;7237;49.500;11.400;2023-02-01T08:06:38;2.00;;;1.80;;
14306;SDS011;7237;49.500;11.400;2023-02-01T08:09:06;2.37;;;1.60;;
14306;SDS011;7237;49.500;11.400;2023-02-01T08:11:34;3.33;;;2.20;;
14306;SDS011;7237;49.500;11.400;2023-02-01T08:14:04;3.07;;;2.00;;
14306;SDS011;7237;49.500;11.400;2023-02-01T08:16:32;2.73;;;2.00;;
14306;SDS011;7237;49.500;11.400;2023-02-01T08:19:00;2.77;;;2.00;;
14306;SDS011;7237;49.500;11.400;2023-02-01T08:21:27;2.20;;;2.00;;
14306;SDS011;7237;49.500;11.400;2023-02-01T08:24:01;1.70;;;1.60;;
14306;SDS011;7237;49.500;11.400;2023-02-01T08:26:28;3.13;;;2.13;;
14306;SDS011;7237;49.500;11.400;2023-02-01T08:28:56;2.30;;;2.00;;
14306;SDS011;7237;49.500;11.400;2023-02-01T08:31:26;3.27;;;1.90;;
14306;SDS011;7237;49.500;11.400;2023-02-01T08:33:54;2.10;;;1.90;;
14306;SDS011;7237;49.500;11.400;2023-02-01T08:36:22;6.00;;;2.43;;
14306;SDS011;7237;49.500;11.400;2023-02-01T08:38:49;4.87;;;2.10;;
14306;SDS011;7237;49.500;11.400;2023-02-01T08:41:17;4.20;;;2.40;;
14306;SDS011;7237;49.500;11.400;2023-02-01T08:43:45;2.43;;;1.90;;
14306;SDS011;7237;49.500;11.400;2023-02-01T08:46:12;7.40;;;3.03;;
14306;SDS011;7237;49.500;11.400;2023-02-01T08:48:41;3.50;;;2.73;;
14306;SDS011;7237;49.500;11.400;2023-02-01T08:51:09;5.27;;;2.60;;
14306;SDS011;7237;49.500;11.400;2023-02-01T08:53:37;2.53;;;2.03;;
14306;SDS011;7237;49.500;11.400;2023-02-01T08:56:06;2.20;;;1.67;;
14306;SDS011;7237;49.500;11.400;2023-02-01T08:58:33;4.70;;;2.37;;
14306;SDS011;7237;49.500;11.400;2023-02-01T09:01:02;2.77;;;1.60;;
14306;SDS011;7237;49.500;11.400;2023-02-01T09:03:29;2.93;;;1.60;;
14306;SDS011;7237;49.500;11.400;2023-02-01T09:06:00;3.90;;;1.80;;
14306;SDS011;7237;49.500;11.400;2023-02-01T09:08:27;4.23;;;1.60;;
14306;SDS011;7237;49.500;11.400;2023-02-01T09:10:58;3.47;;;1.60;;
14306;SDS011;7237;49.500;11.400;2023-02-01T09:13:25;2.73;;;2.10;;
14306;SDS011;7237;49.500;11.400;2023-02-01T09:15:52;3.90;;;2.00;;
14306;SDS011;7237;49.500;11.400;2023-02-01T09:18:19;5.63;;;2.03;;
14306;SDS011;7237;49.500;11.400;2023-02-01T09:20:46;4.87;;;1.97;;
14306;SDS011;7237;49.500;11.400;2023-02-01T09:23:14;4.73;;;1.67;;
14306;SDS011;7237;49.500;11.400;2023-02-01T09:25:41;4.23;;;2.03;;
14306;SDS011;7237;49.500;11.400;2023-02-01T09:28:09;4.43;;;1.97;;
14306;SDS011;7237;49.500;11.400;2023-02-01T09:30:36;3.70;;;1.87;;
14306;SDS011;7237;49.500;11.400;2023-02-01T09:33:03;4.73;;;2.03;;
14306;SDS011;7237;49.500;11.400;2023-02-01T09:35:31;3.13;;;1.60;;
14306;SDS011;7237;49.500;11.400;2023-02-01T09:37:58;5.63;;;2.00;;
14306;SDS011;7237;49.500;11.400;2023-02-01T09:40:26;3.60;;;1.53;;
14306;SDS011;7237;49.500;11.400;2023-02-01T09:43:00;2.17;;;1.50;;
14306;SDS011;7237;49.500;11.400;2023-02-01T09:45:36;3.50;;;1.90;;
14306;SDS011;7237;49.500;11.400;2023-02-01T09:48:08;3.90;;;2.10;;
14306;SDS011;7237;49.500;11.400;2023-02-01T09:50:37;5.17;;;2.17;;
14306;SDS011;7237;49.500;11.400;2023-02-01T09:53:06;2.90;;;2.00;;
14306;SDS011;7237;49.500;11.400;2023-02-01T09:55:39;3.10;;;2.00;;
14306;SDS011;7237;49.500;11.400;2023-02-01T09:58:08;4.93;;;1.67;;
14306;SDS011;7237;49.500;11.400;2023-02-01T10:00:38;4.50;;;1.77;;
14306;SDS011;7237;49.500;11.400;2023-02-01T10:03:07;2.23;;;2.00;;
14306;SDS011;7237;49.500;11.400;2023-02-01T10:05:44;2.70;;;1.67;;
14306;SDS011;7237;49.500;11.400;2023-02-01T10:08:15;4.30;;;1.87;;
14306;SDS011;7237;49.500;11.400;2023-02-01T10:10:47;4.20;;;1.77;;
14306;SDS011;7237;49.500;11.400;2023-02-01T10:13:21;3.20;;;1.50;;
14306;SDS011;7237;49.500;11.400;2023-02-01T10:15:54;4.13;;;1.60;;
14306;SDS011;7237;49.500;11.400;2023-02-01T10:18:28;4.07;;;1.50;;
14306;SDS011;7237;49.500;11.400;2023-02-01T10:20:57;4.00;;;1.67;;
14306;SDS011;7237;49.500;11.400;2023-02-01T10:26:19;4.17;;;1.77;;
14306;SDS011;7237;49.500;11.400;2023-02-01T10:28:48;4.23;;;1.73;;
14306;SDS011;7237;49.500;11.400;2023-02-01T10:31:16;5.10;;;1.63;;
14306;SDS011;7237;49.500;11.400;2023-02-01T10:33:44;5.90;;;1.70;;
14306;SDS011;7237;49.500;11.400;2023-02-01T10:36:13;5.37;;;1.93;;
14306;SDS011;7237;49.500;11.400;2023-02-01T10:38:43;3.60;;;1.90;;
14306;SDS011;7237;49.500;11.400;2023-02-01T10:41:12;4.20;;;1.83;;
14306;SDS011;7237;49.500;11.400;2023-02-01T10:43:42;3.37;;;1.50;;
14306;SDS011;7237;49.500;11.400;2023-02-01T10:46:10;6.70;;;2.20;;
14306;SDS011;7237;49.500;11.400;2023-02-01T10:48:37;4.33;;;1.80;;
14306;SDS011;7237;49.500;11.400;2023-02-01T10:51:06;5.47;;;1.77;;
14306;SDS011;7237;49.500;11.400;2023-02-01T10:53:34;4.90;;;2.00;;
14306;SDS011;7237;49.500;11.400;2023-02-01T10:56:05;3.70;;;1.97;;
14306;SDS011;7237;49.500;11.400;2023-02-01T10:58:33;3.70;;;2.03;;
14306;SDS011;7237;49.500;11.400;2023-02-01T11:01:03;4.00;;;1.70;;
14306;SDS011;7237;49.500;11.400;2023-02-01T11:03:38;4.70;;;2.03;;
14306;SDS011;7237;49.500;11.400;2023-02-01T11:06:10;3.77;;;1.60;;
14306;SDS011;7237;49.500;11.400;2023-02-01T11:08:42;3.43;;;1.90;;
14306;SDS011;7237;49.500;11.400;2023-02-01T11:11:10;5.20;;;1.83;;
14306;SDS011;7237;49.500;11.400;2023-02-01T11:13:38;2.60;;;1.93;;
14306;SDS011;7237;49.500;11.400;2023-02-01T11:16:09;3.90;;;2.33;;
14306;SDS011;7237;49.500;11.400;2023-02-01T11:18:38;3.57;;;2.23;;
14306;SDS011;7237;49.500;11.400;2023-02-01T11:21:06;6.33;;;2.80;;
14306;SDS011;7237;49.500;11.400;2023-02-01T11:23:34;4.73;;;2.57;;
14306;SDS011;7237;49.500;11.400;2023-02-01T11:26:07;4.90;;;2.60;;
14306;SDS011;7237;49.500;11.400;2023-02-01T11:28:37;5.07;;;2.67;;
14306;SDS011;7237;49.500;11.400;2023-02-01T11:31:07;4.10;;;2.33;;
14306;SDS011;7237;49.500;11.400;2023-02-01T11:33:35;6.27;;;2.60;;
14306;SDS011;7237;49.500;11.400;2023-02-01T11:36:06;4.70;;;2.57;;
14306;SDS011;7237;49.500;11.400;2023-02-01T11:38:34;5.27;;;2.30;;
14306;SDS011;7237;49.500;11.400;2023-02-01T11:41:11;8.97;;;2.70;;
14306;SDS011;7237;49.500;11.400;2023-02-01T11:43:50;4.70;;;2.30;;
14306;SDS011;7237;49.500;11.400;2023-02-01T11:46:19;4.03;;;2.03;;
14306;SDS011;7237;49.500;11.400;2023-02-01T11:48:49;5.40;;;2.73;;
14306;SDS011;7237;49.500;11.400;2023-02-01T11:51:20;5.83;;;2.20;;
14306;SDS011;7237;49.500;11.400;2023-02-01T11:53:56;8.13;;;2.63;;
14306;SDS011;7237;49.500;11.400;2023-02-01T11:56:26;6.10;;;2.40;;
14306;SDS011;7237;49.500;11.400;2023-02-01T11:59:16;10.83;;;3.30;;
14306;SDS011;7237;49.500;11.400;2023-02-01T12:01:50;9.00;;;3.27;;
14306;SDS011;7237;49.500;11.400;2023-02-01T12:07:11;5.03;;;2.60;;
14306;SDS011;7237;49.500;11.400;2023-02-01T12:09:44;6.13;;;3.07;;
14306;SDS011;7237;49.500;11.400;2023-02-01T12:12:17;6.47;;;2.80;;
14306;SDS011;7237;49.500;11.400;2023-02-01T12:14:48;7.47;;;2.67;;
14306;SDS011;7237;49.500;11.400;2023-02-01T12:20:23;6.20;;;2.47;;
14306;SDS011;7237;49.500;11.400;2023-02-01T12:22:55;6.70;;;2.57;;
14306;SDS011;7237;49.500;11.400;2023-02-01T12:25:33;4.30;;;2.53;;
14306;SDS011;7237;49.500;11.400;2023-02-01T12:28:16;7.37;;;3.43;;
14306;SDS011;7237;49.500;11.400;2023-02-01T12:33:33;5.27;;;2.70;;
14306;SDS011;7237;49.500;11.400;2023-02-01T12:36:12;4.10;;;1.90;;
14306;SDS011;7237;49.500;11.400;2023-02-01T12:38:42;5.07;;;3.17;;
14306;SDS011;7237;49.500;11.400;2023-02-01T12:41:16;5.33;;;2.27;;
14306;SDS011;7237;49.500;11.400;2023-02-01T12:43:47;4.00;;;2.23;;
14306;SDS011;7237;49.500;11.400;2023-02-01T12:46:17;5.27;;;2.30;;
14306;SDS011;7237;49.500;11.400;2023-02-01T12:48:49;5.83;;;2.20;;
14306;SDS011;7237;49.500;11.400;2023-02-01T12:51:20;9.63;;;3.17;;
14306;SDS011;7237;49.500;11.400;2023-02-01T12:53:50;6.63;;;2.67;;
14306;SDS011;7237;49.500;11.400;2023-02-01T12:56:20;7.03;;;2.73;;
14306;SDS011;7237;49.500;11.400;2023-02-01T12:58:48;9.17;;;2.90;;
14306;SDS011;7237;49.500;11.400;2023-02-01T13:01:18;5.00;;;2.30;;
14306;SDS011;7237;49.500;11.400;2023-02-01T13:03:50;4.33;;;1.87;;
14306;SDS011;7237;49.500;11.400;2023-02-01T13:06:21;5.23;;;2.20;;
14306;SDS011;7237;49.500;11.400;2023-02-01T13:08:50;5.97;;;2.63;;
14306;SDS011;7237;49.500;11.400;2023-02-01T13:11:20;7.23;;;2.73;;
14306;SDS011;7237;49.500;11.400;2023-02-01T13:13:52;4.80;;;2.13;;
14306;SDS011;7237;49.500;11.400;2023-02-01T13:16:23;5.50;;;2.57;;
14306;SDS011;7237;49.500;11.400;2023-02-01T13:18:53;5.97;;;2.80;;
14306;SDS011;7237;49.500;11.400;2023-02-01T13:21:25;8.03;;;3.60;;
14306;SDS011;7237;49.500;11.400;2023-02-01T13:23:53;9.50;;;4.27;;
14306;SDS011;7237;49.500;11.400;2023-02-01T13:26:20;13.17;;;6.03;;
14306;SDS011;7237;49.500;11.400;2023-02-01T13:28:47;9.77;;;4.87;;
14306;SDS011;7237;49.500;11.400;2023-02-01T13:31:29;9.30;;;3.60;;
14306;SDS011;7237;49.500;11.400;2023-02-01T13:34:16;8.80;;;3.40;;
14306;SDS011;7237;49.500;11.400;2023-02-01T13:36:58;8.90;;;4.37;;
14306;SDS011;7237;49.500;11.400;2023-02-01T13:39:39;8.70;;;3.60;;
14306;SDS011;7237;49.500;11.400;2023-02-01T13:42:13;10.53;;;3.80;;
14306;SDS011;7237;49.500;11.400;2023-02-01T13:44:42;5.03;;;2.90;;
14306;SDS011;7237;49.500;11.400;2023-02-01T13:47:12;8.23;;;3.43;;
14306;SDS011;7237;49.500;11.400;2023-02-01T13:49:40;6.03;;;2.70;;
14306;SDS011;7237;49.500;11.400;2023-02-01T13:52:17;6.53;;;2.97;;
14306;SDS011;7237;49.500;11.400;2023-02-01T13:54:49;6.47;;;2.70;;
14306;SDS011;7237;49.500;11.400;2023-02-01T13:57:34;7.70;;;3.10;;
14306;SDS011;7237;49.500;11.400;2023-02-01T14:00:06;8.37;;;3.00;;
14306;SDS011;7237;49.500;11.400;2023-02-01T14:08:22;13.17;;;3.43;;
14306;SDS011;7237;49.500;11.400;2023-02-01T14:10:50;7.13;;;2.97;;
14306;SDS011;7237;49.500;11.400;2023-02-01T14:13:23;4.90;;;2.73;;
14306;SDS011;7237;49.500;11.400;2023-02-01T14:18:56;6.97;;;3.13;;
14306;SDS011;7237;49.500;11.400;2023-02-01T14:21:25;8.60;;;2.70;;
14306;SDS011;7237;49.500;11.400;2023-02-01T14:23:59;7.87;;;3.00;;
14306;SDS011;7237;49.500;11.400;2023-02-01T14:26:27;10.17;;;2.20;;
14306;SDS011;7237;49.500;11.400;2023-02-01T14:29:16;7.33;;;2.40;;
14306;SDS011;7237;49.500;11.400;2023-02-01T14:34:38;8.93;;;2.40;;
14306;SDS011;7237;49.500;11.400;2023-02-01T14:37:11;8.37;;;2.63;;
14306;SDS011;7237;49.500;11.400;2023-02-01T14:39:48;6.03;;;2.47;;
14306;SDS011;7237;49.500;11.400;2023-02-01T14:42:19;8.57;;;3.13;;
14306;SDS011;7237;49.500;11.400;2023-02-01T14:44:48;5.00;;;2.53;;
14306;SDS011;7237;49.500;11.400;2023-02-01T14:49:59;10.17;;;4.03;;
14306;SDS011;7237;49.500;11.400;2023-02-01T14:52:30;9.67;;;3.70;;
14306;SDS011;7237;49.500;11.400;2023-02-01T14:55:02;7.20;;;3.17;;
14306;SDS011;7237;49.500;11.400;2023-02-01T14:57:31;8.47;;;4.60;;
14306;SDS011;7237;49.500;11.400;2023-02-01T15:00:11;8.70;;;3.80;;
14306;SDS011;7237;49.500;11.400;2023-02-01T15:02:41;9.57;;;2.90;;
14306;SDS011;7237;49.500;11.400;2023-02-01T15:05:19;9.90;;;3.47;;
14306;SDS011;7237;49.500;11.400;2023-02-01T15:07:47;8.27;;;3.07;;
14306;SDS011;7237;49.500;11.400;2023-02-01T15:10:15;5.77;;;2.63;;
14306;SDS011;7237;49.500;11.400;2023-02-01T15:12:44;7.10;;;3.07;;
14306;SDS011;7237;49.500;11.400;2023-02-01T15:15:14;6.77;;;2.70;;
14306;SDS011;7237;49.500;11.400;2023-02-01T15:17:42;5.33;;;2.40;;
14306;SDS011;7237;49.500;11.400;2023-02-01T15:20:16;6.50;;;2.40;;
14306;SDS011;7237;49.500;11.400;2023-02-01T15:22:51;5.57;;;2.73;;
14306;SDS011;7237;49.500;11.400;2023-02-01T15:25:21;7.10;;;3.10;;
14306;SDS011;7237;49.500;11.400;2023-02-01T15:27:48;9.50;;;2.90;;
14306;SDS011;7237;49.500;11.400;2023-02-01T15:30:17;4.97;;;3.80;;
14306;SDS011;7237;49.500;11.400;2023-02-01T15:32:44;8.00;;;3.57;;
14306;SDS011;7237;49.500;11.400;2023-02-01T15:35:31;7.87;;;3.73;;